createdAt,value
2023-05-10T04:08:19.311Z,11.5
2023-05-10T04:11:07.220Z,11.4
2023-05-10T04:13:55.315Z,11.4
2023-05-10T04:16:43.210Z,11.5
2023-05-10T04:19:31.247Z,11.5
2023-05-10T04:22:18.935Z,11.5
2023-05-10T04:25:06.673Z,11.5
2023-05-10T04:27:54.442Z,11.5
2023-05-10T04:30:42.586Z,11.5
2023-05-10T04:33:30.506Z,11.5
2023-05-10T04:36:18.361Z,11.5
2023-05-10T04:39:06.125Z,11.6
2023-05-10T04:41:53.984Z,11.6
2023-05-10T04:44:41.770Z,11.7
2023-05-10T04:47:29.602Z,11.7
2023-05-10T04:50:17.483Z,11.7
2023-05-10T04:53:05.962Z,11.7
2023-05-10T04:55:53.678Z,11.7
2023-05-10T04:58:41.561Z,11.7
2023-05-10T05:01:29.498Z,11.7
2023-05-10T05:04:17.454Z,11.8
2023-05-10T05:07:05.339Z,11.8
2023-05-10T05:09:53.172Z,11.9
2023-05-10T05:12:40.909Z,11.9
2023-05-10T05:15:28.934Z,11.9
2023-05-10T05:18:16.788Z,12
2023-05-10T05:21:04.668Z,12
2023-05-10T05:23:52.396Z,12
2023-05-10T05:26:40.332Z,12
2023-05-10T05:29:28.171Z,12
2023-05-10T05:32:16.049Z,12
2023-05-10T05:35:03.790Z,12
2023-05-10T05:37:51.569Z,12
2023-05-10T05:40:39.354Z,12
2023-05-10T05:43:27.190Z,12
2023-05-10T05:46:15.126Z,12
2023-05-10T05:49:03.190Z,12
2023-05-10T05:51:51.000Z,12
2023-05-10T05:54:38.888Z,12
2023-05-10T05:57:29.328Z,12.1
2023-05-10T06:00:17.267Z,12.1
2023-05-10T06:03:05.252Z,12
2023-05-10T06:05:53.370Z,12
2023-05-10T06:08:41.234Z,12
2023-05-10T06:11:29.074Z,12
2023-05-10T06:14:16.905Z,11.9
2023-05-10T06:17:04.925Z,11.9
2023-05-10T06:19:52.981Z,11.9
2023-05-10T06:22:40.842Z,12
2023-05-10T06:25:28.763Z,12
2023-05-10T06:28:21.144Z,12
2023-05-10T06:31:08.942Z,12
2023-05-10T06:33:56.980Z,12
2023-05-10T06:36:44.700Z,12
2023-05-10T06:39:32.709Z,12
2023-05-10T06:42:20.471Z,12
2023-05-10T06:45:08.404Z,12.1
2023-05-10T06:47:56.336Z,12.1
2023-05-10T06:50:44.198Z,12.2
2023-05-10T06:53:32.027Z,12.2
2023-05-10T06:56:20.027Z,12.1
2023-05-10T06:59:08.052Z,12.2
2023-05-10T07:01:56.129Z,12.2
2023-05-10T07:04:44.233Z,12.2
2023-05-10T07:07:32.092Z,12.2
2023-05-10T07:10:19.794Z,12.2
2023-05-10T07:13:08.050Z,12.2
2023-05-10T07:15:56.326Z,12.2
2023-05-10T07:18:44.215Z,12.3
2023-05-10T07:21:32.053Z,12.5
2023-05-10T07:24:20.134Z,12.7
2023-05-10T07:27:07.923Z,13
2023-05-10T07:29:55.833Z,13.1
2023-05-10T07:32:43.905Z,13.2
2023-05-10T07:35:31.881Z,13.1
2023-05-10T07:38:19.624Z,13.1
2023-05-10T07:41:07.347Z,13.2
2023-05-10T07:43:55.178Z,13.4
2023-05-10T07:46:43.528Z,13.7
2023-05-10T07:49:31.467Z,13.9
2023-05-10T07:52:20.654Z,13.9
2023-05-10T07:55:10.614Z,13.9
2023-05-10T07:57:58.449Z,14
2023-05-10T08:00:46.286Z,14
2023-05-10T08:03:34.344Z,14
2023-05-10T08:06:22.362Z,14
2023-05-10T08:09:10.194Z,14.2
2023-05-10T08:11:57.970Z,14.3
2023-05-10T08:14:45.811Z,14.4
2023-05-10T08:17:33.557Z,14.6
2023-05-10T08:20:21.660Z,14.6
2023-05-10T08:23:09.772Z,14.8
2023-05-10T08:25:57.610Z,15
2023-05-10T08:28:45.395Z,15.2
2023-05-10T08:31:33.309Z,15.2
2023-05-10T08:34:21.259Z,15.1
2023-05-10T08:37:09.435Z,15.2
2023-05-10T08:39:59.162Z,15.2
2023-05-10T08:42:47.121Z,14.9
2023-05-10T08:45:34.961Z,14.7
2023-05-10T08:48:22.796Z,14.6
2023-05-10T08:51:10.530Z,14.5
2023-05-10T08:53:58.472Z,14.5
2023-05-10T08:56:47.362Z,14.5
2023-05-10T08:59:37.642Z,14.7
2023-05-10T09:02:25.589Z,14.7
2023-05-10T09:05:13.753Z,14.6
2023-05-10T09:08:04.147Z,14.5
2023-05-10T09:10:52.312Z,14.4
2023-05-10T09:13:40.166Z,14.3
2023-05-10T09:16:38.283Z,14.2
2023-05-10T09:19:26.233Z,14.2
2023-05-10T09:22:14.071Z,14.3
2023-05-10T09:25:01.807Z,14.3
2023-05-10T09:27:49.708Z,14.3
2023-05-10T09:30:37.825Z,14.3
2023-05-10T09:33:25.863Z,14.3
2023-05-10T09:36:13.700Z,14.4
2023-05-10T09:39:01.532Z,14.5
2023-05-10T09:41:49.172Z,14.5
2023-05-10T09:44:37.132Z,14.4
2023-05-10T09:47:24.997Z,14.2
2023-05-10T09:50:12.953Z,13.9
2023-05-10T09:53:00.718Z,13.7
2023-05-10T09:55:48.554Z,13.6
2023-05-10T09:58:36.375Z,13.6
2023-05-10T10:01:24.581Z,13.6
2023-05-10T10:04:12.575Z,13.7
2023-05-10T10:07:00.546Z,13.7
2023-05-10T10:09:48.327Z,13.8
2023-05-10T10:12:36.229Z,13.9
2023-05-10T10:15:23.849Z,14
2023-05-10T10:18:11.754Z,14.2
2023-05-10T10:20:59.529Z,14.2
2023-05-10T10:23:47.346Z,14.3
2023-05-10T10:26:35.128Z,14.4
2023-05-10T10:29:23.090Z,14.4
2023-05-10T10:32:10.962Z,14.4
2023-05-10T10:34:59.085Z,14.3
2023-05-10T10:37:47.044Z,13.9
2023-05-10T10:40:35.225Z,13.6
2023-05-10T10:43:23.060Z,13.4
2023-05-10T10:46:10.802Z,13.3
2023-05-10T10:48:58.600Z,13.3
2023-05-10T10:51:46.561Z,13.3
2023-05-10T10:54:34.370Z,13.4
2023-05-10T10:57:22.231Z,13.5
2023-05-10T11:00:10.014Z,13.6
2023-05-10T11:02:59.554Z,13.8
2023-05-10T11:05:47.619Z,13.9
2023-05-10T11:08:37.534Z,13.9
2023-05-10T11:11:26.110Z,14.1
2023-05-10T11:14:16.624Z,14.2
2023-05-10T11:17:04.435Z,14.4
2023-05-10T11:19:52.440Z,14.6
2023-05-10T11:22:40.165Z,14.6
2023-05-10T11:25:28.047Z,14.7
2023-05-10T11:28:15.786Z,14.7
2023-05-10T11:31:03.730Z,14.7
2023-05-10T11:33:51.651Z,14.7
2023-05-10T11:36:39.641Z,14.7
2023-05-10T11:39:27.429Z,14.6
2023-05-10T11:42:15.395Z,14.5
2023-05-10T11:45:03.105Z,14.3
2023-05-10T11:47:51.202Z,14.3
2023-05-10T11:50:39.075Z,14.2
2023-05-10T11:53:26.967Z,14.3
2023-05-10T11:56:14.686Z,14.4
2023-05-10T11:59:02.600Z,14.5
2023-05-10T12:01:50.409Z,14.7
2023-05-10T12:04:38.479Z,14.9
2023-05-10T12:07:26.391Z,15
2023-05-10T12:10:14.340Z,15
2023-05-10T12:13:02.413Z,15.2
2023-05-10T12:15:50.228Z,15.2
2023-05-10T12:18:38.177Z,15.3
2023-05-10T12:21:26.126Z,15.5
2023-05-10T12:24:13.848Z,15.8
2023-05-10T12:27:01.684Z,16.1
2023-05-10T12:29:49.473Z,16.5
2023-05-10T12:32:37.494Z,17
2023-05-10T12:35:25.432Z,17.5
2023-05-10T12:38:13.382Z,17.8
2023-05-10T12:41:01.256Z,18.1
2023-05-10T12:43:49.373Z,18.4
2023-05-10T12:46:37.453Z,18.7
2023-05-10T12:49:36.288Z,19
2023-05-10T12:52:24.181Z,19.1
2023-05-10T12:55:12.027Z,19.1
2023-05-10T12:57:59.701Z,19.4
2023-05-10T13:00:47.604Z,19.7
2023-05-10T13:03:35.494Z,20.3
2023-05-10T13:06:23.398Z,20.8
2023-05-10T13:09:11.186Z,21.1
2023-05-10T13:11:59.072Z,21
2023-05-10T13:14:46.786Z,20.8
2023-05-10T13:17:34.657Z,20.5
2023-05-10T13:20:22.523Z,20.3
2023-05-10T13:23:10.329Z,20.3
2023-05-10T13:25:58.043Z,20.3
2023-05-10T13:28:45.665Z,20.2
2023-05-10T13:31:33.505Z,20
2023-05-10T13:34:21.410Z,19.9
2023-05-10T13:37:09.422Z,19.7
2023-05-10T13:39:57.335Z,19.8
2023-05-10T13:42:45.028Z,19.7
2023-05-10T13:45:32.778Z,19.7
2023-05-10T13:48:20.560Z,19.5
2023-05-10T13:51:08.517Z,19.6
2023-05-10T13:53:56.280Z,19.8
2023-05-10T13:56:44.144Z,19.7
2023-05-10T13:59:31.857Z,19.5
2023-05-10T14:02:19.783Z,19.4
2023-05-10T14:05:07.520Z,19.4
2023-05-10T14:07:55.257Z,19.5
2023-05-10T14:10:42.983Z,20
2023-05-10T14:13:31.011Z,20.6
2023-05-10T14:16:18.899Z,21.1
2023-05-10T14:19:06.886Z,21.5
2023-05-10T14:21:54.990Z,21.4
2023-05-10T14:24:42.918Z,21.1
2023-05-10T14:27:30.680Z,20.7
2023-05-10T14:30:18.467Z,20.3
2023-05-10T14:33:06.224Z,20.1
2023-05-10T14:35:54.471Z,19.7
2023-05-10T14:38:42.144Z,19.5
2023-05-10T14:41:29.930Z,19.2
2023-05-10T14:44:17.607Z,19.2
2023-05-10T14:47:05.738Z,19.1
2023-05-10T14:49:53.532Z,18.9
2023-05-10T14:52:41.389Z,18.9
2023-05-10T14:55:29.215Z,19
2023-05-10T14:58:17.142Z,19
2023-05-10T15:01:05.527Z,19.1
2023-05-10T15:03:55.668Z,19
2023-05-10T15:06:44.427Z,18.9
2023-05-10T15:09:32.263Z,18.6
2023-05-10T15:12:20.207Z,18.2
2023-05-10T15:15:08.131Z,17.8
2023-05-10T15:17:55.960Z,17.4
2023-05-10T15:20:43.873Z,16.9
2023-05-10T15:23:31.644Z,16.4
2023-05-10T15:26:19.487Z,15.8
2023-05-10T15:29:07.229Z,15.2
2023-05-10T15:31:55.266Z,14.6
2023-05-10T15:34:43.334Z,14.1
2023-05-10T15:37:31.096Z,13.6
2023-05-10T15:40:18.959Z,13.3
2023-05-10T15:43:06.942Z,13
2023-05-10T15:45:54.857Z,12.9
2023-05-10T15:48:42.762Z,12.7
2023-05-10T15:51:30.446Z,12.7
2023-05-10T15:54:34.125Z,12.6
2023-05-10T15:57:21.882Z,12.5
2023-05-10T16:00:09.834Z,12.5
2023-05-10T16:02:57.734Z,12.5
2023-05-10T16:05:46.469Z,12.5
2023-05-10T16:08:34.248Z,12.5
2023-05-10T16:11:22.199Z,12.5
2023-05-10T16:14:10.075Z,12.4
2023-05-10T16:16:58.334Z,12.3
2023-05-10T16:19:46.303Z,12.3
2023-05-10T16:22:34.097Z,12.3
2023-05-10T16:25:21.921Z,12.4
2023-05-10T16:28:09.882Z,12.5
2023-05-10T16:30:57.717Z,12.5
2023-05-10T16:33:45.475Z,12.5
2023-05-10T16:36:33.934Z,12.6
2023-05-10T16:39:21.968Z,12.6
2023-05-10T16:42:09.681Z,12.7
2023-05-10T16:44:57.405Z,12.6
2023-05-10T16:47:45.231Z,12.5
2023-05-10T16:50:33.148Z,12.4
2023-05-10T16:53:20.826Z,12.3
2023-05-10T16:56:08.729Z,12.2
2023-05-10T16:58:56.394Z,12.2
2023-05-10T17:01:44.286Z,12.1
2023-05-10T17:04:32.272Z,12.1
2023-05-10T17:07:20.119Z,12
2023-05-10T17:10:07.739Z,11.9
2023-05-10T17:12:55.575Z,11.9
2023-05-10T17:15:43.826Z,11.9
2023-05-10T17:18:32.011Z,11.8
2023-05-10T17:21:19.846Z,11.7
2023-05-10T17:24:07.610Z,11.7
2023-05-10T17:26:55.312Z,11.7
2023-05-10T17:29:43.037Z,11.7
2023-05-10T17:32:30.898Z,11.7
2023-05-10T17:35:18.997Z,11.7
2023-05-10T17:38:06.962Z,11.7
2023-05-10T17:40:54.846Z,11.7
2023-05-10T17:43:42.718Z,11.7
2023-05-10T17:46:30.675Z,11.8
2023-05-10T17:49:18.389Z,11.8
2023-05-10T17:52:06.196Z,11.9
2023-05-10T17:54:53.992Z,11.9
2023-05-10T17:57:41.889Z,11.9
2023-05-10T18:00:29.721Z,11.9
2023-05-10T18:03:17.611Z,11.9
2023-05-10T18:06:05.842Z,11.9
2023-05-10T18:08:54.016Z,11.9
2023-05-10T18:11:41.879Z,12
2023-05-10T18:14:39.489Z,12
2023-05-10T18:17:29.435Z,12
2023-05-10T18:20:17.407Z,12
2023-05-10T18:23:05.403Z,12.1
2023-05-10T18:25:53.666Z,12.1
2023-05-10T18:28:41.684Z,12.1
2023-05-10T18:31:29.759Z,12.1
2023-05-10T18:34:17.788Z,12.1
2023-05-10T18:37:05.651Z,12.1
2023-05-10T18:39:53.586Z,12.2
2023-05-10T18:42:41.601Z,12.1
2023-05-10T18:45:29.544Z,12.1
2023-05-10T18:48:17.722Z,12.2
2023-05-10T18:51:05.492Z,12.2
2023-05-10T18:53:53.360Z,12.1
2023-05-10T18:56:41.126Z,12.1
2023-05-10T18:59:29.113Z,12.1
2023-05-10T19:02:19.457Z,12
2023-05-10T19:05:07.836Z,11.9
2023-05-10T19:07:55.758Z,11.9
2023-05-10T19:10:43.770Z,11.8
2023-05-10T19:13:31.811Z,11.7
2023-05-10T19:16:23.289Z,11.7
2023-05-10T19:19:12.974Z,11.7
2023-05-10T19:22:03.664Z,11.6
2023-05-10T19:24:51.560Z,11.5
2023-05-10T19:27:39.470Z,11.5
2023-05-10T19:30:27.265Z,11.5
2023-05-10T19:33:16.906Z,11.5
2023-05-10T19:36:05.637Z,11.5
2023-05-10T19:38:53.840Z,11.5
2023-05-10T19:41:41.665Z,11.5
2023-05-10T19:44:29.569Z,11.5
2023-05-10T19:47:17.433Z,11.5
2023-05-10T19:50:05.471Z,11.5
2023-05-10T19:52:53.468Z,11.5
2023-05-10T19:55:41.448Z,11.5
2023-05-10T19:58:29.543Z,11.5
2023-05-10T20:01:17.705Z,11.5
2023-05-10T20:04:05.706Z,11.5
2023-05-10T20:06:53.839Z,11.4
2023-05-10T20:09:41.616Z,11.4
2023-05-10T20:12:29.336Z,11.3
2023-05-10T20:15:17.436Z,11.3
2023-05-10T20:18:05.962Z,11.2
2023-05-10T20:20:53.904Z,11.1
2023-05-10T20:23:41.970Z,11.1
2023-05-10T20:26:29.882Z,11.1
2023-05-10T20:29:17.764Z,11.1
2023-05-10T20:32:05.601Z,11
2023-05-10T20:34:53.486Z,10.9
2023-05-10T20:37:41.319Z,10.8
2023-05-10T20:40:29.386Z,10.7
2023-05-10T20:43:17.300Z,10.7
2023-05-10T20:46:06.031Z,10.7
2023-05-10T20:48:54.094Z,10.7
2023-05-10T20:51:42.030Z,10.7
2023-05-10T20:54:29.915Z,10.7
2023-05-10T20:57:17.852Z,10.7
2023-05-10T21:00:05.745Z,10.7
2023-05-10T21:02:54.025Z,10.8
2023-05-10T21:05:42.083Z,10.7
2023-05-10T21:08:29.962Z,10.7
2023-05-10T21:11:17.851Z,10.7
2023-05-10T21:14:05.914Z,10.6
2023-05-10T21:16:54.018Z,10.6
2023-05-10T21:19:41.969Z,10.6
2023-05-10T21:22:29.775Z,10.6
2023-05-10T21:25:17.733Z,10.6
2023-05-10T21:28:05.673Z,10.5
2023-05-10T21:30:53.691Z,10.5
2023-05-10T21:33:41.646Z,10.5
2023-05-10T21:36:29.628Z,10.6
2023-05-10T21:39:17.445Z,10.6
2023-05-10T21:42:05.406Z,10.6
2023-05-10T21:44:53.080Z,10.7
2023-05-10T21:47:41.022Z,10.7
2023-05-10T21:50:29.109Z,10.7
2023-05-10T21:53:16.998Z,10.8
2023-05-10T21:56:04.830Z,10.8
2023-05-10T21:58:52.771Z,10.9
2023-05-10T22:01:40.879Z,11
2023-05-10T22:04:28.888Z,11
2023-05-10T22:07:16.670Z,11
2023-05-10T22:10:04.511Z,11.1
2023-05-10T22:12:52.281Z,11.1
2023-05-10T22:15:40.184Z,11.1
2023-05-10T22:18:28.176Z,11.1
2023-05-10T22:21:16.084Z,11.1
2023-05-10T22:24:03.957Z,11.1
2023-05-10T22:26:51.725Z,11.1
2023-05-10T22:29:39.510Z,11.1
2023-05-10T22:32:27.363Z,11.1
2023-05-10T22:35:15.175Z,11.1
2023-05-10T22:38:03.123Z,11.1
2023-05-10T22:40:50.954Z,11.1
2023-05-10T22:43:38.785Z,11.1
2023-05-10T22:46:26.642Z,11.1
2023-05-10T22:49:14.705Z,11.1
2023-05-10T22:52:02.498Z,11.1
2023-05-10T22:54:50.401Z,11.1
2023-05-10T22:57:38.130Z,11.1
2023-05-10T23:00:27.283Z,11.1
2023-05-10T23:03:15.157Z,11.1
2023-05-10T23:06:02.841Z,11.1
2023-05-10T23:08:50.688Z,11.1
2023-05-10T23:11:38.593Z,11.1
2023-05-10T23:14:26.394Z,11.1
2023-05-10T23:17:14.227Z,11.1
2023-05-10T23:20:01.983Z,11.1
2023-05-10T23:22:49.905Z,11
2023-05-10T23:25:37.677Z,11
2023-05-10T23:28:25.589Z,11
2023-05-10T23:31:13.404Z,11
2023-05-10T23:34:01.286Z,11
2023-05-10T23:36:49.184Z,11
2023-05-10T23:39:37.013Z,11
2023-05-10T23:42:24.743Z,11
2023-05-10T23:45:12.832Z,11
2023-05-10T23:48:00.810Z,11
2023-05-10T23:50:48.810Z,11
2023-05-10T23:53:36.695Z,11
2023-05-10T23:56:24.640Z,11
2023-05-10T23:59:12.413Z,11
